Waverly, KS

7:55 PM CST on November 21, 2014 (GMT -0600)
KD0RII | Change Station
CLOSE
Current Station
Personal Weather Station
Location: Melvern, KS
Elevation: 1007 ft
Nearby Weather Stations

Elev 1007 ft 38.50 °N, 95.64 °W | Updated 24 seconds ago

Overcast
Overcast
43.2 °F
Feels Like 43 °F
N
0.0
Wind Variable Wind from North
Gusts 0.0 mph

Today
High -- | Low -- °F
--% Chance of Precip.
Yesterday
High -- | Low -- °F
Precip. -- in
7:10 AM 5:05 PM
Waning Crescent, 0% visible
Pressure 30.08 in
Visibility 0.2 miles
Clouds
Windchill 43 °F
Dew Point 43 °F
Humidity 99%
Rainfall 0.04 in
Snow Depth Not available.
UV Not available.
Pollen .10 out of 12
Air Quality Not available.
Flu Activity Not available.
METAR KEMP 220053Z AUTO 12003KT 1/4SM FG VV002 04/04 A3004 RMK AO2 SLP184 T00440044

More Conditions Fewer Conditions

Pressure 30.08 in
Visibility 0.2 miles
Clouds
Windchill 43 °F
Dew Point 43 °F
Humidity 99%
Rainfall 0.04 in
Snow Depth Not available.
UV Not available.
Pollen .10 out of 12
Air Quality Not available.
Flu Activity Not available.
METAR KEMP 220053Z AUTO 12003KT 1/4SM FG VV002 04/04 A3004 RMK AO2 SLP184 T00440044

More Conditions Fewer Conditions

10-Day Weather Forecast

Almanac

Astronomy

Nov. 21, 2014 Rise Set
Actual Time
Civil Twilight
Nautical Twilight
Astronomical Twilight
Moon
Length of Visible Light
Length of Day
Tomorrow will be .
, % of the Moon is Illuminated

Today's Extremes

State Highs State Lows

Community

WunderPhotos

Upload Photos

1,772,750 photos uploaded!

WunderBlogs® & News

Nearby

Air Quality

  Air Quality AQ Index Pollutant
Not available.

Snow Depth

Station Depth Elevation

Earthquake Activity

City Distance Mag. Time & Date
Minimum magnitude displayed is 2.5.

Coastal Water Temperatures

Place Temperature

Nearby Weather Stations